Time;durP1;ratioP1;P1;durP2;ratioP2;P2;SDS_P1;SDS_P2;PMS_P1;PMS_P2;Temp;Humidity;BMP_temperature;BMP_pressure;BME280_temperature;BME280_humidity;BME280_pressure;Samples;Min_cycle;Max_cycle;Signal;HPM_P1;HPM_P2
2022/04/11 00:00:46;;;;;;;0.10;0.10;;;;;;;;;;4179818;28;20057;-42
2022/04/11 00:02:47;;;;;;;0.40;0.20;;;;;;;;;;4180071;28;20294;-40
2022/04/11 00:04:48;;;;;;;0.20;0.10;;;;;;;;;;4179698;28;20057;-42
2022/04/11 00:06:49;;;;;;;0.00;0.00;;;;;;;;;;4180162;28;20064;-41
2022/04/11 00:08:50;;;;;;;0.22;0.10;;;;;;;;;;4179017;28;20385;-41
2022/04/11 00:10:52;;;;;;;0.15;0.10;;;;;;;;;;4179880;28;20500;-41
2022/04/11 00:13:07;;;;;;;0.10;0.10;;;;;;;;;;4179750;28;20061;-40
2022/04/11 00:15:09;;;;;;;0.10;0.10;;;;;;;;;;4178689;28;20056;-41
2022/04/11 00:17:10;;;;;;;0.10;0.10;;;;;;;;;;4179819;28;20057;-41
2022/04/11 00:19:12;;;;;;;0.20;0.20;;;;;;;;;;4179601;28;20531;-41
2022/04/11 00:21:13;;;;;;;0.10;0.10;;;;;;;;;;4179595;28;20103;-40
2022/04/11 00:23:14;;;;;;;0.10;0.10;;;;;;;;;;4179040;28;20053;-40
2022/04/11 00:25:15;;;;;;;0.10;0.10;;;;;;;;;;4178412;28;20386;-41
2022/04/11 00:27:16;;;;;;;0.20;0.20;;;;;;;;;;4179563;28;20060;-41
2022/04/11 00:29:17;;;;;;;0.10;0.10;;;;;;;;;;4179339;28;20049;-40
2022/04/11 00:31:19;;;;;;;0.15;0.10;;;;;;;;;;4179437;28;20057;-42
2022/04/11 00:33:20;;;;;;;0.10;0.10;;;;;;;;;;4178207;28;20451;-42
2022/04/11 00:35:21;;;;;;;0.10;0.10;;;;;;;;;;4179792;28;20048;-41
2022/04/11 00:37:22;;;;;;;0.10;0.10;;;;;;;;;;4178118;28;20479;-41
2022/04/11 00:39:23;;;;;;;0.10;0.10;;;;;;;;;;4177707;28;20148;-41
2022/04/11 00:41:24;;;;;;;0.13;0.13;;;;;;;;;;4179579;28;20155;-41
2022/04/11 00:43:43;;;;;;;0.10;0.10;;;;;;;;;;4179321;28;20056;-40
2022/04/11 00:45:45;;;;;;;0.10;0.10;;;;;;;;;;4179441;28;20099;-41
2022/04/11 00:47:46;;;;;;;0.03;0.03;;;;;;;;;;4179247;28;20049;-41
2022/04/11 00:49:48;;;;;;;0.00;0.00;;;;;;;;;;4179188;28;20420;-41
2022/04/11 00:51:49;;;;;;;0.22;0.10;;;;;;;;;;4179384;28;20122;-40
2022/04/11 00:53:52;;;;;;;0.10;0.10;;;;;;;;;;4178969;28;20111;-41
2022/04/11 00:55:54;;;;;;;0.10;0.10;;;;;;;;;;4161504;28;20520;-40
2022/04/11 00:57:56;;;;;;;0.38;0.10;;;;;;;;;;4161821;28;20087;-41
2022/04/11 00:59:57;;;;;;;0.20;0.10;;;;;;;;;;4178924;28;20057;-41
2022/04/11 01:02:01;;;;;;;0.20;0.20;;;;;;;;;;4177976;28;20118;-41
2022/04/11 01:04:02;;;;;;;0.10;0.10;;;;;;;;;;4177809;28;20146;-41
2022/04/11 01:06:03;;;;;;;0.10;0.10;;;;;;;;;;4175744;28;20053;-41
2022/04/11 01:08:06;;;;;;;0.28;0.10;;;;;;;;;;4177431;28;20049;-41
2022/04/11 01:10:08;;;;;;;0.10;0.10;;;;;;;;;;4175416;28;20057;-42
2022/04/11 01:12:11;;;;;;;0.65;0.10;;;;;;;;;;4176955;28;20057;-41
2022/04/11 01:14:13;;;;;;;0.10;0.10;;;;;;;;;;4159239;28;20064;-40
2022/04/11 01:16:14;;;;;;;0.10;0.10;;;;;;;;;;4176162;28;20091;-38
2022/04/11 01:18:15;;;;;;;0.10;0.10;;;;;;;;;;4176873;28;20064;-41
2022/04/11 01:20:17;;;;;;;0.10;0.10;;;;;;;;;;4178791;28;20049;-42
2022/04/11 01:22:18;;;;;;;0.43;0.10;;;;;;;;;;4179017;28;20512;-41
2022/04/11 01:24:20;;;;;;;0.20;0.10;;;;;;;;;;4179783;28;20495;-41
2022/04/11 01:26:22;;;;;;;0.20;0.17;;;;;;;;;;4178918;28;20056;-41
2022/04/11 01:28:24;;;;;;;0.17;0.13;;;;;;;;;;4178498;28;20702;-41
2022/04/11 01:30:25;;;;;;;0.03;0.00;;;;;;;;;;4178580;28;20114;-41
2022/04/11 01:32:28;;;;;;;0.30;0.10;;;;;;;;;;4180471;28;20107;-39
2022/04/11 01:34:30;;;;;;;0.15;0.10;;;;;;;;;;4178543;28;20056;-42
2022/04/11 01:36:32;;;;;;;0.10;0.10;;;;;;;;;;4162322;28;20456;-41
2022/04/11 01:38:33;;;;;;;0.00;0.00;;;;;;;;;;4178333;28;20048;-41
2022/04/11 01:40:34;;;;;;;0.20;0.20;;;;;;;;;;4179947;28;20080;-42
2022/04/11 01:42:35;;;;;;;0.13;0.13;;;;;;;;;;4179986;28;20421;-42
2022/04/11 01:44:36;;;;;;;0.10;0.10;;;;;;;;;;4178678;28;20091;-42
2022/04/11 01:46:37;;;;;;;0.10;0.10;;;;;;;;;;4180021;28;20110;-38
2022/04/11 01:48:45;;;;;;;0.10;0.10;;;;;;;;;;4162870;28;20088;-41
2022/04/11 01:50:47;;;;;;;0.05;0.00;;;;;;;;;;4178595;28;20083;-38
2022/04/11 01:52:48;;;;;;;0.10;0.10;;;;;;;;;;4177986;28;20747;-41
2022/04/11 01:54:49;;;;;;;0.00;0.00;;;;;;;;;;4178958;28;20060;-42
2022/04/11 01:56:50;;;;;;;0.20;0.10;;;;;;;;;;4180541;28;20079;-39
2022/04/11 01:58:51;;;;;;;0.10;0.10;;;;;;;;;;4181588;28;20470;-41
2022/04/11 02:00:53;;;;;;;0.10;0.10;;;;;;;;;;4180464;28;20056;-40
2022/04/11 02:02:55;;;;;;;0.10;0.00;;;;;;;;;;4180388;28;20358;-41
2022/04/11 02:04:58;;;;;;;0.32;0.20;;;;;;;;;;4180533;28;20048;-39
2022/04/11 02:07:00;;;;;;;0.10;0.10;;;;;;;;;;4180323;28;20056;-40
2022/04/11 02:09:02;;;;;;;0.05;0.03;;;;;;;;;;4179764;28;20057;-42
2022/04/11 02:11:04;;;;;;;0.13;0.10;;;;;;;;;;4181619;28;20106;-41
2022/04/11 02:13:06;;;;;;;0.10;0.10;;;;;;;;;;4180253;28;20057;-40
2022/04/11 02:15:08;;;;;;;0.00;0.00;;;;;;;;;;4180161;28;20056;-41
2022/04/11 02:17:09;;;;;;;0.10;0.10;;;;;;;;;;4181469;28;20500;-41
2022/04/11 02:19:11;;;;;;;0.08;0.08;;;;;;;;;;4181345;28;20508;-41
2022/04/11 02:21:12;;;;;;;0.10;0.10;;;;;;;;;;4181432;28;20114;-41
2022/04/11 02:23:13;;;;;;;0.20;0.20;;;;;;;;;;4181213;28;20103;-41
2022/04/11 02:25:15;;;;;;;0.22;0.10;;;;;;;;;;4180089;28;20060;-39
2022/04/11 02:27:16;;;;;;;0.10;0.10;;;;;;;;;;4180182;28;20122;-39
2022/04/11 02:29:18;;;;;;;0.10;0.10;;;;;;;;;;4179977;28;20408;-40
2022/04/11 02:31:19;;;;;;;0.10;0.10;;;;;;;;;;4181266;28;20095;-41
2022/04/11 02:33:20;;;;;;;0.10;0.10;;;;;;;;;;4181421;28;20102;-41
2022/04/11 02:35:23;;;;;;;0.00;0.00;;;;;;;;;;4179924;28;20048;-41
2022/04/11 02:37:24;;;;;;;0.10;0.10;;;;;;;;;;4179837;28;20053;-40
2022/04/11 02:39:25;;;;;;;0.15;0.10;;;;;;;;;;4179534;28;20095;-41
2022/04/11 02:41:26;;;;;;;0.00;0.00;;;;;;;;;;4179837;28;20057;-39
2022/04/11 02:43:28;;;;;;;0.13;0.00;;;;;;;;;;4179664;28;20057;-41
2022/04/11 02:45:36;;;;;;;0.00;0.00;;;;;;;;;;4163433;28;20119;-41
2022/04/11 02:47:37;;;;;;;0.10;0.00;;;;;;;;;;4179808;28;20127;-40
2022/04/11 02:49:39;;;;;;;0.30;0.30;;;;;;;;;;4179551;28;20061;-42
2022/04/11 02:51:54;;;;;;;0.20;0.10;;;;;;;;;;4179737;28;20053;-41
2022/04/11 02:53:57;;;;;;;0.10;0.10;;;;;;;;;;4162984;28;20050;-40
2022/04/11 02:55:58;;;;;;;0.10;0.10;;;;;;;;;;4180729;28;20394;-39
2022/04/11 02:57:59;;;;;;;0.03;0.03;;;;;;;;;;4179567;28;20053;-40
2022/04/11 03:00:04;;;;;;;0.08;0.08;;;;;;;;;;4179351;28;20060;-39
2022/04/11 03:02:06;;;;;;;0.00;0.00;;;;;;;;;;4179512;28;20103;-42
2022/04/11 03:04:07;;;;;;;0.10;0.10;;;;;;;;;;4179352;28;20056;-41
2022/04/11 03:06:22;;;;;;;0.43;0.10;;;;;;;;;;4179428;28;20432;-41
2022/04/11 03:08:25;;;;;;;0.03;0.03;;;;;;;;;;4178771;28;20091;-40
2022/04/11 03:10:26;;;;;;;0.10;0.10;;;;;;;;;;4180623;28;20122;-42
2022/04/11 03:12:33;;;;;;;0.25;0.10;;;;;;;;;;4179432;28;20052;-42
2022/04/11 03:14:34;;;;;;;0.10;0.10;;;;;;;;;;4179168;28;20049;-41
2022/04/11 03:16:37;;;;;;;0.10;0.10;;;;;;;;;;4179594;28;20056;-41
2022/04/11 03:18:40;;;;;;;0.00;0.00;;;;;;;;;;4180324;28;20546;-42
2022/04/11 03:20:41;;;;;;;0.10;0.10;;;;;;;;;;4179221;28;20065;-41
2022/04/11 03:22:43;;;;;;;0.15;0.10;;;;;;;;;;4179415;28;20049;-40
2022/04/11 03:24:45;;;;;;;0.00;0.00;;;;;;;;;;4178508;28;20049;-41
2022/04/11 03:26:46;;;;;;;0.10;0.10;;;;;;;;;;4180655;28;20506;-39
2022/04/11 03:28:55;;;;;;;0.10;0.10;;;;;;;;;;4179066;28;20048;-39
2022/04/11 03:30:56;;;;;;;0.10;0.10;;;;;;;;;;4178923;28;20374;-42
2022/04/11 03:32:59;;;;;;;0.35;0.20;;;;;;;;;;4162935;28;20416;-42
2022/04/11 03:35:05;;;;;;;0.17;0.10;;;;;;;;;;4178932;28;20057;-42
2022/04/11 03:37:06;;;;;;;0.00;0.00;;;;;;;;;;4179044;28;20049;-41
2022/04/11 03:39:14;;;;;;;0.00;0.00;;;;;;;;;;4178337;28;20500;-41
2022/04/11 03:41:17;;;;;;;0.10;0.10;;;;;;;;;;4162675;28;20443;-40
2022/04/11 03:43:18;;;;;;;0.00;0.00;;;;;;;;;;4178280;28;20064;-42
2022/04/11 03:45:20;;;;;;;1.55;0.20;;;;;;;;;;4180329;28;20497;-39
2022/04/11 03:47:23;;;;;;;0.10;0.10;;;;;;;;;;4178784;28;20094;-41
2022/04/11 03:49:24;;;;;;;0.00;0.00;;;;;;;;;;4178670;28;20400;-39
2022/04/11 03:51:26;;;;;;;0.20;0.10;;;;;;;;;;4178818;28;20102;-40
2022/04/11 03:53:27;;;;;;;0.10;0.10;;;;;;;;;;4178117;28;20094;-41
2022/04/11 03:55:31;;;;;;;0.05;0.05;;;;;;;;;;4180124;28;20060;-41
2022/04/11 03:57:33;;;;;;;0.00;0.00;;;;;;;;;;4178545;28;20114;-41
2022/04/11 03:59:38;;;;;;;0.00;0.00;;;;;;;;;;4178119;28;20520;-41
2022/04/11 04:01:39;;;;;;;0.10;0.10;;;;;;;;;;4162431;28;20061;-42
2022/04/11 04:03:41;;;;;;;0.00;0.00;;;;;;;;;;4178353;28;20535;-42
2022/04/11 04:05:46;;;;;;;0.10;0.10;;;;;;;;;;4178708;28;20061;-41
2022/04/11 04:07:50;;;;;;;0.10;0.10;;;;;;;;;;4178490;28;20048;-38
2022/04/11 04:09:51;;;;;;;0.30;0.10;;;;;;;;;;4177811;28;20057;-42
2022/04/11 04:11:53;;;;;;;0.20;0.10;;;;;;;;;;4161990;28;20053;-41
2022/04/11 04:13:59;;;;;;;0.10;0.10;;;;;;;;;;4178356;28;20053;-39
2022/04/11 04:16:02;;;;;;;0.00;0.00;;;;;;;;;;4178382;28;20122;-41
2022/04/11 04:18:04;;;;;;;0.05;0.05;;;;;;;;;;4178671;28;20159;-39
2022/04/11 04:20:06;;;;;;;0.13;0.10;;;;;;;;;;4178297;28;20481;-42
2022/04/11 04:22:07;;;;;;;0.00;0.00;;;;;;;;;;4178395;28;20436;-40
2022/04/11 04:24:09;;;;;;;0.00;0.00;;;;;;;;;;4177927;28;20057;-42
2022/04/11 04:26:11;;;;;;;0.05;0.00;;;;;;;;;;4178430;28;20053;-41
2022/04/11 04:28:17;;;;;;;0.00;0.00;;;;;;;;;;4177985;28;20049;-42
2022/04/11 04:30:18;;;;;;;0.10;0.10;;;;;;;;;;4178138;28;20091;-40
2022/04/11 04:32:20;;;;;;;0.05;0.05;;;;;;;;;;4178024;28;20049;-40
2022/04/11 04:34:25;;;;;;;0.10;0.10;;;;;;;;;;4178129;28;20056;-41
2022/04/11 04:36:27;;;;;;;0.20;0.10;;;;;;;;;;4178188;28;20102;-40
2022/04/11 04:38:31;;;;;;;0.25;0.10;;;;;;;;;;4177421;28;20268;-41
2022/04/11 04:40:32;;;;;;;0.20;0.10;;;;;;;;;;4178213;28;20449;-40
2022/04/11 04:42:34;;;;;;;0.10;0.10;;;;;;;;;;4178086;28;20057;-42
2022/04/11 04:44:41;;;;;;;0.10;0.10;;;;;;;;;;4178207;28;20063;-41
2022/04/11 04:46:46;;;;;;;0.63;0.10;;;;;;;;;;4178038;28;20053;-41
2022/04/11 04:48:57;;;;;;;;;;;;;;;;;;4178351;28;20056;-39
2022/04/11 04:51:00;;;;;;;0.10;0.10;;;;;;;;;;4177937;28;19970;-42
2022/04/11 04:53:03;;;;;;;0.43;0.10;;;;;;;;;;4161608;28;20053;-39
2022/04/11 04:55:05;;;;;;;0.90;0.10;;;;;;;;;;4162086;28;20060;-40
2022/04/11 04:57:07;;;;;;;0.50;0.10;;;;;;;;;;4181312;28;20052;-41
2022/04/11 04:59:08;;;;;;;0.10;0.00;;;;;;;;;;4180980;28;20487;-41
2022/04/11 05:01:15;;;;;;;0.75;0.10;;;;;;;;;;4178353;28;20582;-41
2022/04/11 05:03:16;;;;;;;0.57;0.10;;;;;;;;;;4179069;28;20587;-42
2022/04/11 05:05:18;;;;;;;0.93;0.10;;;;;;;;;;4179186;28;20488;-40
2022/04/11 05:07:22;;;;;;;0.55;0.20;;;;;;;;;;4178965;28;20114;-42
2022/04/11 05:09:24;;;;;;;0.93;0.15;;;;;;;;;;4161984;28;20152;-41
2022/04/11 05:11:25;;;;;;;0.30;0.20;;;;;;;;;;4179281;28;20076;-41
2022/04/11 05:13:27;;;;;;;0.40;0.20;;;;;;;;;;4162004;28;20062;-41
2022/04/11 05:15:30;;;;;;;0.60;0.13;;;;;;;;;;4179188;28;20053;-41
2022/04/11 05:17:39;;;;;;;0.95;0.10;;;;;;;;;;4179184;28;20065;-41
2022/04/11 05:19:41;;;;;;;1.38;0.10;;;;;;;;;;4162390;28;20057;-40
2022/04/11 05:21:42;;;;;;;0.47;0.30;;;;;;;;;;4178811;28;20479;-41
2022/04/11 05:23:44;;;;;;;0.17;0.10;;;;;;;;;;4162054;28;20057;-39
2022/04/11 05:25:46;;;;;;;0.77;0.20;;;;;;;;;;4178594;28;20057;-41
2022/04/11 05:27:48;;;;;;;0.10;0.10;;;;;;;;;;4162223;28;20057;-41
2022/04/11 05:29:49;;;;;;;0.85;0.15;;;;;;;;;;4178502;28;20118;-41
2022/04/11 05:31:51;;;;;;;0.10;0.10;;;;;;;;;;4178664;28;20083;-41
2022/04/11 05:33:52;;;;;;;1.35;0.15;;;;;;;;;;4180267;28;20052;-42
2022/04/11 05:35:56;;;;;;;0.13;0.13;;;;;;;;;;4179910;28;20049;-40
2022/04/11 05:37:57;;;;;;;0.30;0.15;;;;;;;;;;4162224;28;20088;-40
2022/04/11 05:39:59;;;;;;;0.45;0.20;;;;;;;;;;4178299;28;20478;-40
2022/04/11 05:42:02;;;;;;;1.70;0.20;;;;;;;;;;4178868;28;20063;-42
2022/04/11 05:44:04;;;;;;;1.00;0.40;;;;;;;;;;4178550;28;20060;-40
2022/04/11 05:46:11;;;;;;;0.30;0.13;;;;;;;;;;4178512;28;20053;-41
2022/04/11 05:48:16;;;;;;;0.45;0.13;;;;;;;;;;4177922;28;20099;-39
2022/04/11 05:50:19;;;;;;;0.10;0.10;;;;;;;;;;4178364;28;20076;-40
2022/04/11 05:52:21;;;;;;;0.43;0.30;;;;;;;;;;4179803;28;20056;-40
2022/04/11 05:54:22;;;;;;;0.43;0.10;;;;;;;;;;4177905;28;20052;-41
2022/04/11 05:56:24;;;;;;;0.20;0.20;;;;;;;;;;4168818;28;20052;-42
2022/04/11 05:58:25;;;;;;;0.13;0.10;;;;;;;;;;4166213;28;20118;-41
2022/04/11 06:00:27;;;;;;;0.50;0.40;;;;;;;;;;4172753;28;20077;-41
2022/04/11 06:02:28;;;;;;;0.73;0.20;;;;;;;;;;4175094;28;20056;-42
2022/04/11 06:04:30;;;;;;;1.55;0.13;;;;;;;;;;4170612;28;20053;-41
2022/04/11 06:06:31;;;;;;;0.47;0.10;;;;;;;;;;4183288;28;20105;-41
2022/04/11 06:08:33;;;;;;;0.20;0.20;;;;;;;;;;4160084;28;20058;-40
2022/04/11 06:10:36;;;;;;;0.10;0.10;;;;;;;;;;4174658;28;20057;-41
2022/04/11 06:12:38;;;;;;;1.02;0.28;;;;;;;;;;4167766;28;20053;-41
2022/04/11 06:14:39;;;;;;;0.20;0.20;;;;;;;;;;4158251;28;20141;-41
2022/04/11 06:16:40;;;;;;;0.57;0.20;;;;;;;;;;4160558;28;20137;-43
2022/04/11 06:18:42;;;;;;;0.10;0.10;;;;;;;;;;4177761;28;20056;-40
2022/04/11 06:20:45;;;;;;;0.95;0.22;;;;;;;;;;4174998;28;20118;-39
2022/04/11 06:22:47;;;;;;;2.22;0.25;;;;;;;;;;4161151;28;20057;-42
2022/04/11 06:24:49;;;;;;;0.98;0.17;;;;;;;;;;4177685;28;20057;-43
2022/04/11 06:26:50;;;;;;;0.28;0.20;;;;;;;;;;4164945;28;20060;-44
2022/04/11 06:28:52;;;;;;;0.28;0.10;;;;;;;;;;4161974;28;20438;-43
2022/04/11 06:30:53;;;;;;;1.40;0.30;;;;;;;;;;4166002;28;20126;-43
2022/04/11 06:32:54;;;;;;;2.13;0.40;;;;;;;;;;4145524;28;20296;-43
2022/04/11 06:34:56;;;;;;;2.53;0.30;;;;;;;;;;4171163;28;20067;-44
2022/04/11 06:36:57;;;;;;;2.20;0.20;;;;;;;;;;4165910;28;20542;-43
2022/04/11 06:38:58;;;;;;;3.13;0.20;;;;;;;;;;4140461;28;20517;-43
2022/04/11 06:40:59;;;;;;;0.22;0.10;;;;;;;;;;4157096;28;20106;-43
2022/04/11 06:43:00;;;;;;;3.03;0.22;;;;;;;;;;4167010;28;20052;-42
2022/04/11 06:45:31;;;;;;;2.08;0.25;;;;;;;;;;4161595;28;20057;-43
2022/04/11 06:47:37;;;;;;;2.50;0.30;;;;;;;;;;4161622;28;20053;-42
2022/04/11 06:49:39;;;;;;;4.20;0.45;;;;;;;;;;4164091;28;20138;-43
2022/04/11 06:51:40;;;;;;;1.08;0.30;;;;;;;;;;4158420;28;20469;-42
2022/04/11 06:53:41;;;;;;;1.15;0.38;;;;;;;;;;4165545;28;20508;-42
2022/04/11 06:55:44;;;;;;;3.92;0.40;;;;;;;;;;4159731;28;20141;-43
2022/04/11 06:57:45;;;;;;;3.45;0.60;;;;;;;;;;4165375;28;20094;-42
2022/04/11 06:59:46;;;;;;;2.45;0.22;;;;;;;;;;4154728;28;20114;-36
2022/04/11 07:01:48;;;;;;;1.30;0.32;;;;;;;;;;4142059;28;20095;-36
2022/04/11 07:03:51;;;;;;;1.48;0.25;;;;;;;;;;4145478;28;20763;-35
2022/04/11 07:05:52;;;;;;;2.13;0.30;;;;;;;;;;4145619;28;20107;-35
2022/04/11 07:07:54;;;;;;;1.90;0.47;;;;;;;;;;4158181;28;20190;-35
2022/04/11 07:09:55;;;;;;;2.45;0.40;;;;;;;;;;4152028;28;20699;-35
2022/04/11 07:11:56;;;;;;;1.85;0.35;;;;;;;;;;4158950;28;20061;-35
2022/04/11 07:13:57;;;;;;;1.42;0.30;;;;;;;;;;4158836;28;20063;-35
2022/04/11 07:15:58;;;;;;;2.72;0.38;;;;;;;;;;4158520;28;20056;-36
2022/04/11 07:18:00;;;;;;;1.02;0.40;;;;;;;;;;4167226;28;20060;-35
2022/04/11 07:20:02;;;;;;;0.50;0.20;;;;;;;;;;4160689;28;20083;-35
2022/04/11 07:22:04;;;;;;;5.78;0.40;;;;;;;;;;4165327;28;20501;-35
2022/04/11 07:24:05;;;;;;;1.05;0.35;;;;;;;;;;4169082;28;20106;-34
2022/04/11 07:26:06;;;;;;;2.20;0.45;;;;;;;;;;4153134;28;20049;-35
2022/04/11 07:28:07;;;;;;;0.70;0.28;;;;;;;;;;4150940;28;20060;-36
2022/04/11 07:30:09;;;;;;;1.65;0.30;;;;;;;;;;4162233;28;20068;-36
2022/04/11 07:32:10;;;;;;;2.22;0.30;;;;;;;;;;4158540;28;20101;-36
2022/04/11 07:34:11;;;;;;;1.33;0.30;;;;;;;;;;4158184;28;20574;-36
2022/04/11 07:36:12;;;;;;;2.45;0.63;;;;;;;;;;4158778;28;20059;-35
2022/04/11 07:38:13;;;;;;;1.63;0.30;;;;;;;;;;4157520;28;20052;-35
2022/04/11 07:40:14;;;;;;;2.70;0.40;;;;;;;;;;4154852;28;20060;-36
2022/04/11 07:42:15;;;;;;;1.00;0.45;;;;;;;;;;4152758;28;20347;-36
2022/04/11 07:44:17;;;;;;;0.95;0.20;;;;;;;;;;4157192;28;20056;-36
2022/04/11 07:46:19;;;;;;;0.40;0.20;;;;;;;;;;4147643;28;20510;-36
2022/04/11 07:48:20;;;;;;;2.72;0.30;;;;;;;;;;4152563;28;20064;-35
2022/04/11 07:50:25;;;;;;;2.40;0.20;;;;;;;;;;4162328;28;20068;-36
2022/04/11 07:52:26;;;;;;;2.30;0.47;;;;;;;;;;4167518;28;20109;-40
2022/04/11 07:54:27;;;;;;;0.45;0.20;;;;;;;;;;4161084;28;20524;-36
2022/04/11 07:56:29;;;;;;;1.90;0.30;;;;;;;;;;4154826;28;20619;-36
2022/04/11 07:58:30;;;;;;;0.63;0.28;;;;;;;;;;4159509;28;20057;-36
2022/04/11 08:00:31;;;;;;;2.90;0.20;;;;;;;;;;4150793;28;20491;-36
2022/04/11 08:02:33;;;;;;;0.90;0.10;;;;;;;;;;4153277;28;20106;-36
2022/04/11 08:04:34;;;;;;;0.57;0.32;;;;;;;;;;4154731;28;20146;-36
2022/04/11 08:06:35;;;;;;;1.65;0.25;;;;;;;;;;4157178;28;20056;-36
2022/04/11 08:08:44;;;;;;;0.65;0.22;;;;;;;;;;4155018;28;20705;-36
2022/04/11 08:10:45;;;;;;;1.50;0.30;;;;;;;;;;4143491;28;20064;-37
2022/04/11 08:12:53;;;;;;;0.68;0.30;;;;;;;;;;4140945;28;20213;-35
2022/04/11 08:14:54;;;;;;;1.27;0.20;;;;;;;;;;4151670;28;20083;-36
2022/04/11 08:16:59;;;;;;;1.63;0.30;;;;;;;;;;4156168;28;20322;-36
2022/04/11 08:19:01;;;;;;;0.13;0.13;;;;;;;;;;4157177;28;20555;-36
2022/04/11 08:21:03;;;;;;;0.55;0.40;;;;;;;;;;4155424;28;20115;-36
2022/04/11 08:23:04;;;;;;;2.00;0.30;;;;;;;;;;4157655;28;20464;-36
2022/04/11 08:25:06;;;;;;;1.38;0.38;;;;;;;;;;4160504;28;20401;-36
2022/04/11 08:27:07;;;;;;;1.95;0.50;;;;;;;;;;4161025;28;20048;-37
2022/04/11 08:29:08;;;;;;;5.43;0.30;;;;;;;;;;4161151;28;20492;-36
2022/04/11 08:31:09;;;;;;;1.35;0.20;;;;;;;;;;4158882;28;20086;-36
2022/04/11 08:33:11;;;;;;;0.80;0.38;;;;;;;;;;4156787;28;20079;-36
2022/04/11 08:35:13;;;;;;;1.50;0.50;;;;;;;;;;4156470;28;20052;-36
2022/04/11 08:37:14;;;;;;;1.42;0.30;;;;;;;;;;4159382;28;20053;-36
2022/04/11 08:39:16;;;;;;;0.88;0.30;;;;;;;;;;4157116;28;20194;-36
2022/04/11 08:41:18;;;;;;;1.00;0.40;;;;;;;;;;4162009;28;20083;-35
2022/04/11 08:43:21;;;;;;;1.33;0.20;;;;;;;;;;4165086;28;20107;-36
2022/04/11 08:45:23;;;;;;;2.15;0.30;;;;;;;;;;4162166;28;20122;-35
2022/04/11 08:47:24;;;;;;;0.47;0.40;;;;;;;;;;4161144;28;20151;-36
2022/04/11 08:49:28;;;;;;;2.65;0.30;;;;;;;;;;4157613;28;20065;-36
2022/04/11 08:51:31;;;;;;;4.45;0.55;;;;;;;;;;4155756;28;20064;-36
2022/04/11 08:53:32;;;;;;;0.13;0.10;;;;;;;;;;4159169;28;20057;-37
2022/04/11 08:55:34;;;;;;;1.02;0.20;;;;;;;;;;4156891;28;20060;-36
2022/04/11 08:57:36;;;;;;;2.88;0.30;;;;;;;;;;4155153;28;20281;-36
2022/04/11 08:59:38;;;;;;;1.80;0.20;;;;;;;;;;4146256;28;20155;-36
2022/04/11 09:01:39;;;;;;;0.98;0.47;;;;;;;;;;4146221;28;20131;-36
2022/04/11 09:03:43;;;;;;;0.57;0.20;;;;;;;;;;4159131;28;20616;-35
2022/04/11 09:06:02;;;;;;;0.90;0.30;;;;;;;;;;4163671;28;20068;-35
2022/04/11 09:08:03;;;;;;;3.75;0.40;;;;;;;;;;4161985;28;20459;-35
2022/04/11 09:10:05;;;;;;;0.40;0.20;;;;;;;;;;4159086;28;20827;-35
2022/04/11 09:12:14;;;;;;;1.65;0.73;;;;;;;;;;4161346;28;20111;-35
2022/04/11 09:14:15;;;;;;;2.58;0.45;;;;;;;;;;4159523;28;20061;-35
2022/04/11 09:16:17;;;;;;;1.50;0.30;;;;;;;;;;4161166;28;20064;-36
2022/04/11 09:18:18;;;;;;;3.33;0.30;;;;;;;;;;4165135;28;20128;-35
2022/04/11 09:20:24;;;;;;;2.75;0.20;;;;;;;;;;4160053;28;20063;-36
2022/04/11 09:22:30;;;;;;;2.60;0.38;;;;;;;;;;4164237;28;20136;-36
2022/04/11 09:24:31;;;;;;;0.60;0.30;;;;;;;;;;4164923;28;20053;-36
2022/04/11 09:26:34;;;;;;;1.20;0.30;;;;;;;;;;4166253;28;20154;-35
2022/04/11 09:28:35;;;;;;;2.28;0.35;;;;;;;;;;4163052;28;20052;-36
2022/04/11 09:30:39;;;;;;;1.27;0.30;;;;;;;;;;4146505;28;20057;-35
2022/04/11 09:32:53;;;;;;;1.33;0.30;;;;;;;;;;4162769;28;20057;-36
2022/04/11 09:34:54;;;;;;;0.50;0.30;;;;;;;;;;4170505;28;20076;-36
2022/04/11 09:36:57;;;;;;;2.72;0.20;;;;;;;;;;4166115;28;20835;-37
2022/04/11 09:38:59;;;;;;;0.20;0.20;;;;;;;;;;4163584;28;20053;-37
2022/04/11 09:41:01;;;;;;;0.70;0.30;;;;;;;;;;4158293;28;20535;-36
2022/04/11 09:43:03;;;;;;;3.40;0.40;;;;;;;;;;4167262;28;20113;-36
2022/04/11 09:45:04;;;;;;;0.40;0.20;;;;;;;;;;4160748;28;20053;-37
2022/04/11 09:47:07;;;;;;;1.02;0.35;;;;;;;;;;4160712;28;20061;-36
2022/04/11 09:49:08;;;;;;;5.25;0.40;;;;;;;;;;4166687;28;20052;-36
2022/04/11 09:51:13;;;;;;;1.92;0.28;;;;;;;;;;4167602;28;20104;-36
2022/04/11 09:53:19;;;;;;;1.65;0.40;;;;;;;;;;4167609;28;20137;-36
2022/04/11 09:55:21;;;;;;;1.33;0.25;;;;;;;;;;4167017;28;20107;-36
2022/04/11 09:57:23;;;;;;;2.00;0.20;;;;;;;;;;4164711;28;20098;-37
2022/04/11 09:59:24;;;;;;;2.25;0.20;;;;;;;;;;4173849;28;20535;-35
2022/04/11 10:01:25;;;;;;;2.33;0.28;;;;;;;;;;4160961;28;20056;-35
2022/04/11 10:03:27;;;;;;;0.45;0.20;;;;;;;;;;4147115;28;20203;-35
2022/04/11 10:05:29;;;;;;;0.50;0.30;;;;;;;;;;4163757;28;20143;-35
2022/04/11 10:07:31;;;;;;;1.15;0.43;;;;;;;;;;4162628;28;20063;-36
2022/04/11 10:09:32;;;;;;;1.55;0.20;;;;;;;;;;4169827;28;20408;-35
2022/04/11 10:11:34;;;;;;;0.90;0.20;;;;;;;;;;4175739;28;20068;-35
2022/04/11 10:13:36;;;;;;;0.25;0.20;;;;;;;;;;4170468;28;20071;-35
2022/04/11 10:15:38;;;;;;;0.57;0.20;;;;;;;;;;4169459;28;20048;-37
2022/04/11 10:17:39;;;;;;;0.63;0.13;;;;;;;;;;4177532;28;20175;-35
2022/04/11 10:19:42;;;;;;;0.43;0.25;;;;;;;;;;4178427;28;20044;-37
2022/04/11 10:21:44;;;;;;;0.25;0.20;;;;;;;;;;4173698;28;20056;-37
2022/04/11 10:24:16;;;;;;;0.40;0.17;;;;;;;;;;4167236;28;20487;-34
2022/04/11 10:26:19;;;;;;;2.95;0.30;;;;;;;;;;4173313;28;21086;-36
2022/04/11 10:28:24;;;;;;;0.70;0.20;;;;;;;;;;4172159;28;20056;-36
2022/04/11 10:30:32;;;;;;;0.20;0.20;;;;;;;;;;4171135;28;20072;-36
2022/04/11 10:32:35;;;;;;;0.45;0.30;;;;;;;;;;4169512;28;20502;-37
2022/04/11 10:34:46;;;;;;;0.32;0.13;;;;;;;;;;4188827;28;20048;-36
2022/04/11 10:36:55;;;;;;;0.20;0.20;;;;;;;;;;4170820;28;20106;-36
2022/04/11 10:39:15;;;;;;;2.03;0.30;;;;;;;;;;4168423;28;20107;-36
2022/04/11 10:41:17;;;;;;;0.85;0.30;;;;;;;;;;4160918;28;20053;-37
2022/04/11 10:43:18;;;;;;;0.20;0.20;;;;;;;;;;4165577;28;20106;-36
2022/04/11 10:45:32;;;;;;;1.30;0.20;;;;;;;;;;4161135;28;20107;-37
2022/04/11 10:47:34;;;;;;;1.52;0.20;;;;;;;;;;4161139;28;20168;-36
2022/04/11 10:49:44;;;;;;;0.68;0.43;;;;;;;;;;4164332;28;20077;-37
2022/04/11 10:51:45;;;;;;;;;;;;;;;;;;4161362;28;20457;-37
2022/04/11 10:54:16;;;;;;;0.80;0.30;;;;;;;;;;4160521;28;20407;-36
2022/04/11 10:56:17;;;;;;;0.50;0.30;;;;;;;;;;4168766;28;20098;-37
2022/04/11 10:58:23;;;;;;;0.40;0.20;;;;;;;;;;4160981;28;20494;-36
2022/04/11 11:00:34;;;;;;;0.63;0.20;;;;;;;;;;4154633;28;20083;-37
2022/04/11 11:02:57;;;;;;;0.32;0.30;;;;;;;;;;4149474;28;20080;-36
2022/04/11 11:04:58;;;;;;;0.40;0.25;;;;;;;;;;4160917;28;20049;-37
2022/04/11 11:07:30;;;;;;;3.08;0.30;;;;;;;;;;4157119;28;20576;-36
2022/04/11 11:09:38;;;;;;;1.30;0.30;;;;;;;;;;4158252;28;20052;-36
2022/04/11 11:11:40;;;;;;;0.30;0.20;;;;;;;;;;4169122;28;20519;-36
2022/04/11 11:13:41;;;;;;;0.15;0.10;;;;;;;;;;4160836;28;20098;-36
2022/04/11 11:15:46;;;;;;;0.40;0.20;;;;;;;;;;4162228;28;20126;-36
2022/04/11 11:17:54;;;;;;;1.10;0.20;;;;;;;;;;4166954;28;20060;-36
2022/04/11 11:20:05;;;;;;;0.93;0.50;;;;;;;;;;4157923;28;20098;-36
2022/04/11 11:22:06;;;;;;;0.75;0.40;;;;;;;;;;4163974;28;20196;-37
2022/04/11 11:24:08;;;;;;;1.13;0.30;;;;;;;;;;4157523;28;20741;-37
2022/04/11 11:26:11;;;;;;;0.35;0.20;;;;;;;;;;4164230;28;20064;-37
2022/04/11 11:28:13;;;;;;;0.20;0.20;;;;;;;;;;4163110;28;20061;-37
2022/04/11 11:30:15;;;;;;;0.60;0.30;;;;;;;;;;4163886;28;20771;-37
2022/04/11 11:32:16;;;;;;;1.35;0.20;;;;;;;;;;4161020;28;20110;-37
2022/04/11 11:34:19;;;;;;;2.65;0.40;;;;;;;;;;4162385;28;20058;-37
2022/04/11 11:36:30;;;;;;;0.50;0.45;;;;;;;;;;4162423;28;21851;-36
2022/04/11 11:38:32;;;;;;;0.20;0.20;;;;;;;;;;4170056;28;20061;-36
2022/04/11 11:40:36;;;;;;;1.70;0.20;;;;;;;;;;4168803;28;20138;-37
2022/04/11 11:42:37;;;;;;;0.95;0.20;;;;;;;;;;4163869;28;20107;-36
2022/04/11 11:44:46;;;;;;;1.42;0.22;;;;;;;;;;4168098;28;20048;-36
2022/04/11 11:46:53;;;;;;;0.52;0.20;;;;;;;;;;4168862;28;20056;-37
2022/04/11 11:48:55;;;;;;;1.17;0.20;;;;;;;;;;4167966;28;20097;-37
2022/04/11 11:50:58;;;;;;;1.00;0.20;;;;;;;;;;4168115;28;20423;-36
2022/04/11 11:53:00;;;;;;;0.43;0.22;;;;;;;;;;4169916;28;20065;-36
2022/04/11 11:55:02;;;;;;;1.90;0.32;;;;;;;;;;4166616;28;20107;-36
2022/04/11 11:57:17;;;;;;;1.02;0.32;;;;;;;;;;4164815;28;20061;-36
2022/04/11 11:59:19;;;;;;;1.92;0.32;;;;;;;;;;4167885;28;20070;-36
2022/04/11 12:01:20;;;;;;;1.20;0.25;;;;;;;;;;4171829;28;20057;-36
2022/04/11 12:05:42;;;;;;;0.32;0.28;;;;;;;;;;4164631;28;20060;-36
2022/04/11 12:07:43;;;;;;;1.70;0.47;;;;;;;;;;4161295;28;20095;-37
2022/04/11 12:09:44;;;;;;;0.90;0.20;;;;;;;;;;4169030;28;20519;-36
2022/04/11 12:11:45;;;;;;;0.25;0.20;;;;;;;;;;4173128;28;20079;-35
2022/04/11 12:13:46;;;;;;;0.52;0.30;;;;;;;;;;4170790;28;20149;-35
2022/04/11 12:15:48;;;;;;;0.20;0.10;;;;;;;;;;4171746;28;20527;-35
2022/04/11 12:18:00;;;;;;;0.75;0.20;;;;;;;;;;4175458;28;20511;-35
2022/04/11 12:20:18;;;;;;;0.20;0.10;;;;;;;;;;4163334;28;20056;-35